Flight Track Log - Related Links

Times and Time Zones

All times are in EDT time to prevent confusion due to time zone crossing. See the SWA896 flight status page for this flight to view local times or setup timezone preferences in your user account.

Time Position Orientation Groundspeed Altitude Reporting Facility
EDT Latitude Longitude Course Direction KTS MPH feet Rate Location/Type
Tue 02:13:36 PM 36.0775 -115.1144 270° West 154 177 3,400  Level Los Angeles Center
Tue 02:14:19 PM 36.0778 -115.0667 90° East 211 243 4,200 1,918 Climbing Los Angeles Center
Tue 02:15:13 PM 36.0767 -114.9881 91° East 239 275 6,500 2,276 Climbing Los Angeles Center
Tue 02:16:15 PM 36.0197 -114.9269 139° Southeast 283 326 8,600 2,129 Climbing Los Angeles Center
Tue 02:17:17 PM 35.9400 -114.9356 185° South 308 354 10,900 1,935 Climbing Los Angeles Center
Tue 02:18:19 PM 35.9239 -115.0522 260° West 344 396 12,600 2,352 Climbing Los Angeles Center
Tue 02:19:00 PM 35.8834 -115.7169 270° West  Level FlightAware Approximate
Tue 02:19:22 PM 35.9194 -115.1853 268° West 374 430 15,800  Level Los Angeles Center
Tue 02:20:24 PM 35.9144 -115.3447 268° West 385 443 18,800 2,613 Climbing Los Angeles Center
Tue 02:21:26 PM 35.9114 -115.4842 268° West 397 457 21,200 2,468 Climbing Los Angeles Center
Tue 02:22:28 PM 35.9058 -115.6325 267° West 408 470 23,900 2,032 Climbing Los Angeles Center
Tue 02:23:30 PM 35.9022 -115.7700 268° West 413 475 25,400 1,488 Climbing Los Angeles Center
Tue 02:24:33 PM 35.8969 -115.9269 268° West 424 488 27,000 1,920 Climbing Los Angeles Center
Tue 02:25:35 PM 35.9600 -116.0422 304° West 416 479 29,400 1,742 Climbing Los Angeles Center
Tue 02:26:37 PM 36.0392 -116.1356 316° Northwest 414 476 30,600 1,452 Climbing Los Angeles Center
Tue 02:27:39 PM 36.1269 -116.2350 318° Northwest 412 474 32,400 1,597 Climbing Los Angeles Center
Tue 02:28:41 PM 36.2069 -116.3281 317° Northwest 400 460 33,900 774 Climbing Los Angeles Center
Tue 02:29:43 PM 36.3039 -116.4400 317° Northwest 398 458 34,000 48 Climbing Los Angeles Center
Tue 02:30:45 PM 36.3842 -116.5353 316° Northwest 400 460 34,000  Level Los Angeles Center
Tue 02:31:47 PM 36.4650 -116.6292 317° Northwest 399 459 34,000  Level Los Angeles Center
Tue 02:32:49 PM 36.5453 -116.7228 317° Northwest 401 461 34,000  Level Los Angeles Center
Tue 02:33:52 PM 36.6569 -116.8181 326° Northwest 409 471 34,000  Level Los Angeles Center
Tue 02:34:53 PM 36.7553 -116.8903 330° Northwest 410 472 34,000  Level Los Angeles Center
Tue 02:35:56 PM 36.8528 -116.9675 328° Northwest 412 474 34,000  Level Los Angeles Center
Tue 02:36:27 PM 36.8922 -116.9986 328° Northwest 412 474 34,000  Level Oakland Center
Tue 02:37:28 PM 37.0092 -117.0881 329° Northwest 410 472 34,000  Level Oakland Center
Tue 02:38:30 PM 37.1050 -117.1611 329° Northwest 406 467 34,000  Level Oakland Center
Tue 02:39:31 PM 37.2000 -117.2364 328° Northwest 402 463 34,000  Level Oakland Center
Tue 02:40:32 PM 37.2967 -117.3103 329° Northwest 405 466 34,000  Level Oakland Center
Tue 02:41:34 PM 37.3708 -117.4111 313° West 394 453 34,000  Level Oakland Center
Tue 02:42:35 PM 37.4428 -117.5206 310° West 401 461 34,000  Level Oakland Center
Tue 02:43:36 PM 37.5133 -117.6278 310° West 398 458 34,000  Level Oakland Center
Tue 02:44:38 PM 37.5847 -117.7364 310° West 399 459 34,000 -98 Level Oakland Center
Tue 02:45:39 PM 37.6550 -117.8447 309° West 399 459 33,800 -590 Descending Oakland Center
Tue 02:46:40 PM 37.7272 -117.9536 310° West 402 463 32,800 -878 Descending Oakland Center
Tue 02:47:42 PM 37.7992 -118.0642 309° West 404 465 32,000 -390 Descending Oakland Center
Tue 02:48:43 PM 37.8708 -118.1764 309° West 406 467 32,000  Level Oakland Center
Tue 02:49:44 PM 37.9422 -118.2864 309° West 404 465 32,000 -295 Level Oakland Center
Tue 02:50:45 PM 38.0264 -118.4189 309° West 403 464 31,400 -787 Descending Oakland Center
Tue 02:51:46 PM 38.0978 -118.5289 310° West 402 463 30,400 -683 Descending Oakland Center
Tue 02:52:48 PM 38.1675 -118.6383 309° West 402 463 30,000 -195 Descending Oakland Center
Tue 02:53:49 PM 38.2369 -118.7478 309° West 400 460 30,000  Level Oakland Center
Tue 02:54:50 PM 38.3064 -118.8583 309° West 400 460 30,000  Level Oakland Center
Tue 02:55:52 PM 38.3772 -118.9703 309° West 403 464 30,000  Level Oakland Center
Tue 02:56:53 PM 38.4461 -119.0806 309° West 400 460 30,000  Level Oakland Center
Tue 02:57:54 PM 38.5161 -119.1911 309° West 398 458 30,000  Level Oakland Center
Tue 02:58:55 PM 38.5850 -119.3019 309° West 398 458 30,000  Level Oakland Center
Tue 02:59:56 PM 38.6547 -119.4125 309° West 399 459 30,000 -488 Level Oakland Center
Tue 03:00:58 PM 38.6933 -119.5489 290° West 409 471 29,000 -976 Descending Oakland Center
Tue 03:01:59 PM 38.7233 -119.6900 285° West 410 472 28,000 -1,033 Descending Oakland Center
Tue 03:03:00 PM 38.7581 -119.8519 285° West 414 476 26,900 -1,033 Descending Oakland Center
Tue 03:04:01 PM 38.7881 -119.9925 285° West 410 472 25,900 -1,024 Descending Oakland Center
Tue 03:05:03 PM 38.8172 -120.1325 285° West 409 471 24,800 -1,366 Descending Oakland Center
Tue 03:06:04 PM 38.8458 -120.2711 285° West 406 467 23,100 -1,967 Descending Oakland Center
Tue 03:07:05 PM 38.8742 -120.4050 285° West 393 452 20,800 -2,262 Descending Oakland Center
Tue 03:08:06 PM 38.8994 -120.5336 284° West 378 435 18,500 -2,508 Descending Oakland Center
Tue 03:09:07 PM 38.9294 -120.6819 285° West 362 417 15,700 -2,439 Descending Oakland Center
Tue 03:10:09 PM 38.9544 -120.8042 285° West 358 412 13,500 -2,195 Descending Oakland Center
Tue 03:11:10 PM 38.9772 -120.9239 284° West 351 404 11,200 -1,230 Descending Oakland Center
Tue 03:12:11 PM 38.9817 -121.0436 273° West 352 405 11,000 -590 Descending Oakland Center
Tue 03:13:12 PM 38.9517 -121.1650 252° West 358 412 10,000 -472 Descending Oakland Center
Tue 03:14:18 PM 38.9167 -121.3000 252° West 343 395 10,000 -381 Level Northern Cal TRACON
Tue 03:15:18 PM 38.8833 -121.4000 247° West 296 341 9,200 -1,053 Descending Northern Cal TRACON
Tue 03:16:12 PM 38.8833 -121.5000 270° West 284 327 8,000 -1,450 Descending Northern Cal TRACON
Tue 03:17:18 PM 38.8667 -121.6000 258° West 281 323 6,300 -1,571 Descending Northern Cal TRACON
Tue 03:18:18 PM 38.8333 -121.6833 243° Southwest 285 328 4,700 -1,400 Descending Northern Cal TRACON
Tue 03:19:18 PM 38.7500 -121.7000 189° South 276 318 3,500 -850 Descending Northern Cal TRACON
Tue 03:20:18 PM 38.6833 -121.7000 180° South 250 288 3,000 -800 Descending Northern Cal TRACON
Tue 03:21:18 PM 38.6333 -121.6667 152° Southeast 220 253 1,900 -1,050 Descending Northern Cal TRACON
Tue 03:22:18 PM 38.6333 -121.6167 90° East 164 189 900 -850 Descending Northern Cal TRACON
Tue 03:23:18 PM 38.6833 -121.6000 15° North 149 171 200 -700 Descending Northern Cal TRACON

Login

Don't have an account? Register now (free) for customized features, flight alerts, and more!